sensor_id;sensor_type;location;lat;lon;timestamp;P1;durP1;ratioP1;P2;durP2;ratioP2
29776;SDS011;16677;52.224;7.484;2023-06-26T00:02:18;11.57;;;10.50;;
29776;SDS011;16677;52.224;7.484;2023-06-26T00:04:46;11.60;;;10.60;;
29776;SDS011;16677;52.224;7.484;2023-06-26T00:07:13;11.63;;;10.52;;
29776;SDS011;16677;52.224;7.484;2023-06-26T00:09:40;12.27;;;11.18;;
29776;SDS011;16677;52.224;7.484;2023-06-26T00:12:07;11.70;;;10.65;;
29776;SDS011;16677;52.224;7.484;2023-06-26T00:14:35;11.88;;;10.77;;
29776;SDS011;16677;52.224;7.484;2023-06-26T00:17:02;11.65;;;10.52;;
29776;SDS011;16677;52.224;7.484;2023-06-26T00:19:29;11.75;;;10.75;;
29776;SDS011;16677;52.224;7.484;2023-06-26T00:21:56;12.48;;;11.48;;
29776;SDS011;16677;52.224;7.484;2023-06-26T00:24:24;12.38;;;11.25;;
29776;SDS011;16677;52.224;7.484;2023-06-26T00:26:51;12.07;;;10.98;;
29776;SDS011;16677;52.224;7.484;2023-06-26T00:29:18;12.45;;;11.38;;
29776;SDS011;16677;52.224;7.484;2023-06-26T00:31:45;11.68;;;10.68;;
29776;SDS011;16677;52.224;7.484;2023-06-26T00:34:12;12.70;;;11.60;;
29776;SDS011;16677;52.224;7.484;2023-06-26T00:36:41;13.07;;;11.88;;
29776;SDS011;16677;52.224;7.484;2023-06-26T00:39:10;12.82;;;11.73;;
29776;SDS011;16677;52.224;7.484;2023-06-26T00:41:37;12.55;;;11.45;;
29776;SDS011;16677;52.224;7.484;2023-06-26T00:44:05;12.63;;;11.52;;
29776;SDS011;16677;52.224;7.484;2023-06-26T00:46:32;13.13;;;11.82;;
29776;SDS011;16677;52.224;7.484;2023-06-26T00:49:02;12.23;;;11.23;;
29776;SDS011;16677;52.224;7.484;2023-06-26T00:51:30;12.27;;;11.18;;
29776;SDS011;16677;52.224;7.484;2023-06-26T00:53:57;12.45;;;11.35;;
29776;SDS011;16677;52.224;7.484;2023-06-26T00:56:24;13.90;;;12.52;;
29776;SDS011;16677;52.224;7.484;2023-06-26T00:58:52;13.60;;;12.25;;
29776;SDS011;16677;52.224;7.484;2023-06-26T01:01:19;12.90;;;11.70;;
29776;SDS011;16677;52.224;7.484;2023-06-26T01:03:48;13.70;;;12.48;;
29776;SDS011;16677;52.224;7.484;2023-06-26T01:06:22;13.10;;;11.90;;
29776;SDS011;16677;52.224;7.484;2023-06-26T01:08:52;13.20;;;12.10;;
29776;SDS011;16677;52.224;7.484;2023-06-26T01:11:20;13.57;;;12.40;;
29776;SDS011;16677;52.224;7.484;2023-06-26T01:13:47;13.60;;;12.40;;
29776;SDS011;16677;52.224;7.484;2023-06-26T01:16:16;13.85;;;12.57;;
29776;SDS011;16677;52.224;7.484;2023-06-26T01:18:45;13.32;;;12.07;;
29776;SDS011;16677;52.224;7.484;2023-06-26T01:21:15;13.45;;;12.15;;
29776;SDS011;16677;52.224;7.484;2023-06-26T01:23:49;13.35;;;12.18;;
29776;SDS011;16677;52.224;7.484;2023-06-26T01:26:31;14.55;;;13.25;;
29776;SDS011;16677;52.224;7.484;2023-06-26T01:29:02;13.52;;;12.32;;
29776;SDS011;16677;52.224;7.484;2023-06-26T01:31:33;13.40;;;12.10;;
29776;SDS011;16677;52.224;7.484;2023-06-26T01:34:01;13.85;;;12.50;;
29776;SDS011;16677;52.224;7.484;2023-06-26T01:36:29;14.23;;;12.98;;
29776;SDS011;16677;52.224;7.484;2023-06-26T01:38:56;14.55;;;12.93;;
29776;SDS011;16677;52.224;7.484;2023-06-26T01:41:23;13.77;;;12.57;;
29776;SDS011;16677;52.224;7.484;2023-06-26T01:46:39;14.10;;;12.90;;
29776;SDS011;16677;52.224;7.484;2023-06-26T01:49:33;14.18;;;12.88;;
29776;SDS011;16677;52.224;7.484;2023-06-26T01:57:47;13.70;;;12.43;;
29776;SDS011;16677;52.224;7.484;2023-06-26T02:00:15;12.48;;;11.27;;
29776;SDS011;16677;52.224;7.484;2023-06-26T02:02:44;13.13;;;12.00;;
29776;SDS011;16677;52.224;7.484;2023-06-26T02:05:12;13.90;;;12.80;;
29776;SDS011;16677;52.224;7.484;2023-06-26T02:07:41;13.80;;;12.55;;
29776;SDS011;16677;52.224;7.484;2023-06-26T02:10:09;13.75;;;12.55;;
29776;SDS011;16677;52.224;7.484;2023-06-26T02:12:37;14.07;;;12.75;;
29776;SDS011;16677;52.224;7.484;2023-06-26T02:15:06;13.65;;;12.45;;
29776;SDS011;16677;52.224;7.484;2023-06-26T02:17:35;14.20;;;12.95;;
29776;SDS011;16677;52.224;7.484;2023-06-26T02:20:02;13.82;;;12.63;;
29776;SDS011;16677;52.224;7.484;2023-06-26T02:22:30;14.82;;;13.05;;
29776;SDS011;16677;52.224;7.484;2023-06-26T02:24:58;13.63;;;12.32;;
29776;SDS011;16677;52.224;7.484;2023-06-26T02:27:25;13.57;;;12.43;;
29776;SDS011;16677;52.224;7.484;2023-06-26T02:29:53;13.38;;;12.07;;
29776;SDS011;16677;52.224;7.484;2023-06-26T02:32:20;13.13;;;11.93;;
29776;SDS011;16677;52.224;7.484;2023-06-26T02:34:47;13.63;;;12.30;;
29776;SDS011;16677;52.224;7.484;2023-06-26T02:37:15;13.93;;;12.63;;
29776;SDS011;16677;52.224;7.484;2023-06-26T02:39:43;14.00;;;12.60;;
29776;SDS011;16677;52.224;7.484;2023-06-26T02:42:11;13.98;;;12.57;;
29776;SDS011;16677;52.224;7.484;2023-06-26T02:44:39;13.50;;;12.40;;
29776;SDS011;16677;52.224;7.484;2023-06-26T02:47:07;13.68;;;12.48;;
29776;SDS011;16677;52.224;7.484;2023-06-26T02:49:35;13.70;;;12.50;;
29776;SDS011;16677;52.224;7.484;2023-06-26T02:52:02;13.85;;;12.65;;
29776;SDS011;16677;52.224;7.484;2023-06-26T02:54:29;13.13;;;11.82;;
29776;SDS011;16677;52.224;7.484;2023-06-26T02:56:57;14.82;;;13.02;;
29776;SDS011;16677;52.224;7.484;2023-06-26T02:59:25;13.80;;;12.50;;
29776;SDS011;16677;52.224;7.484;2023-06-26T03:01:53;14.98;;;13.48;;
29776;SDS011;16677;52.224;7.484;2023-06-26T03:04:20;14.00;;;12.68;;
29776;SDS011;16677;52.224;7.484;2023-06-26T03:06:48;13.32;;;12.15;;
29776;SDS011;16677;52.224;7.484;2023-06-26T03:09:15;14.65;;;13.15;;
29776;SDS011;16677;52.224;7.484;2023-06-26T03:11:43;13.63;;;12.43;;
29776;SDS011;16677;52.224;7.484;2023-06-26T03:14:10;13.73;;;12.32;;
29776;SDS011;16677;52.224;7.484;2023-06-26T03:16:37;14.48;;;13.00;;
29776;SDS011;16677;52.224;7.484;2023-06-26T03:19:05;13.77;;;12.45;;
29776;SDS011;16677;52.224;7.484;2023-06-26T03:21:33;13.35;;;12.02;;
29776;SDS011;16677;52.224;7.484;2023-06-26T03:24:00;13.95;;;12.65;;
29776;SDS011;16677;52.224;7.484;2023-06-26T03:26:27;14.07;;;12.00;;
29776;SDS011;16677;52.224;7.484;2023-06-26T03:28:56;12.70;;;11.65;;
29776;SDS011;16677;52.224;7.484;2023-06-26T03:31:23;13.35;;;12.05;;
29776;SDS011;16677;52.224;7.484;2023-06-26T03:33:51;12.98;;;11.85;;
29776;SDS011;16677;52.224;7.484;2023-06-26T03:36:18;13.27;;;11.88;;
29776;SDS011;16677;52.224;7.484;2023-06-26T03:38:45;12.95;;;11.75;;
29776;SDS011;16677;52.224;7.484;2023-06-26T03:41:13;13.45;;;12.20;;
29776;SDS011;16677;52.224;7.484;2023-06-26T03:43:40;13.20;;;12.05;;
29776;SDS011;16677;52.224;7.484;2023-06-26T03:46:07;13.18;;;11.77;;
29776;SDS011;16677;52.224;7.484;2023-06-26T03:48:35;13.48;;;12.18;;
29776;SDS011;16677;52.224;7.484;2023-06-26T03:51:04;12.07;;;10.88;;
29776;SDS011;16677;52.224;7.484;2023-06-26T03:53:33;13.30;;;11.82;;
29776;SDS011;16677;52.224;7.484;2023-06-26T03:56:00;13.68;;;12.20;;
29776;SDS011;16677;52.224;7.484;2023-06-26T03:58:28;13.00;;;11.75;;
29776;SDS011;16677;52.224;7.484;2023-06-26T04:00:55;13.20;;;11.82;;
29776;SDS011;16677;52.224;7.484;2023-06-26T04:03:24;12.40;;;11.10;;
29776;SDS011;16677;52.224;7.484;2023-06-26T04:05:51;12.90;;;11.63;;
29776;SDS011;16677;52.224;7.484;2023-06-26T04:08:18;11.85;;;10.70;;
29776;SDS011;16677;52.224;7.484;2023-06-26T04:10:47;11.80;;;10.70;;
29776;SDS011;16677;52.224;7.484;2023-06-26T04:13:14;15.43;;;12.00;;
29776;SDS011;16677;52.224;7.484;2023-06-26T04:15:42;13.00;;;10.90;;
29776;SDS011;16677;52.224;7.484;2023-06-26T04:18:11;12.13;;;11.00;;
29776;SDS011;16677;52.224;7.484;2023-06-26T04:20:39;11.93;;;10.73;;
29776;SDS011;16677;52.224;7.484;2023-06-26T04:23:32;12.07;;;10.98;;
29776;SDS011;16677;52.224;7.484;2023-06-26T04:26:00;12.35;;;11.23;;
29776;SDS011;16677;52.224;7.484;2023-06-26T04:28:29;12.18;;;11.00;;
29776;SDS011;16677;52.224;7.484;2023-06-26T04:30:56;12.05;;;10.35;;
29776;SDS011;16677;52.224;7.484;2023-06-26T04:33:23;11.00;;;9.90;;
29776;SDS011;16677;52.224;7.484;2023-06-26T04:35:52;11.77;;;10.77;;
29776;SDS011;16677;52.224;7.484;2023-06-26T04:38:20;11.85;;;10.75;;
29776;SDS011;16677;52.224;7.484;2023-06-26T04:40:48;11.93;;;10.45;;
29776;SDS011;16677;52.224;7.484;2023-06-26T04:43:15;11.60;;;10.43;;
29776;SDS011;16677;52.224;7.484;2023-06-26T04:45:42;11.18;;;10.07;;
29776;SDS011;16677;52.224;7.484;2023-06-26T04:48:10;15.00;;;10.38;;
29776;SDS011;16677;52.224;7.484;2023-06-26T04:50:39;11.20;;;10.00;;
29776;SDS011;16677;52.224;7.484;2023-06-26T04:53:07;10.52;;;9.57;;
29776;SDS011;16677;52.224;7.484;2023-06-26T04:55:34;12.63;;;10.77;;
29776;SDS011;16677;52.224;7.484;2023-06-26T04:58:04;11.98;;;10.65;;
29776;SDS011;16677;52.224;7.484;2023-06-26T05:00:32;12.05;;;10.80;;
29776;SDS011;16677;52.224;7.484;2023-06-26T05:03:02;15.43;;;12.32;;
29776;SDS011;16677;52.224;7.484;2023-06-26T05:05:30;12.25;;;10.95;;
29776;SDS011;16677;52.224;7.484;2023-06-26T05:07:57;11.88;;;10.68;;
29776;SDS011;16677;52.224;7.484;2023-06-26T05:10:24;12.52;;;11.23;;
29776;SDS011;16677;52.224;7.484;2023-06-26T05:12:52;12.80;;;11.43;;
29776;SDS011;16677;52.224;7.484;2023-06-26T05:15:19;12.02;;;10.82;;
29776;SDS011;16677;52.224;7.484;2023-06-26T05:17:46;12.00;;;10.90;;
29776;SDS011;16677;52.224;7.484;2023-06-26T05:20:13;12.23;;;11.10;;
29776;SDS011;16677;52.224;7.484;2023-06-26T05:22:41;12.40;;;11.20;;
29776;SDS011;16677;52.224;7.484;2023-06-26T05:25:10;11.38;;;10.27;;
29776;SDS011;16677;52.224;7.484;2023-06-26T05:27:38;12.40;;;11.27;;
29776;SDS011;16677;52.224;7.484;2023-06-26T05:30:05;11.95;;;10.18;;
29776;SDS011;16677;52.224;7.484;2023-06-26T05:32:34;12.15;;;10.90;;
29776;SDS011;16677;52.224;7.484;2023-06-26T05:35:03;11.90;;;10.55;;
29776;SDS011;16677;52.224;7.484;2023-06-26T05:37:31;11.68;;;10.60;;
29776;SDS011;16677;52.224;7.484;2023-06-26T05:40:00;11.93;;;10.82;;
29776;SDS011;16677;52.224;7.484;2023-06-26T05:42:30;11.63;;;10.43;;
29776;SDS011;16677;52.224;7.484;2023-06-26T05:44:58;11.38;;;10.15;;
29776;SDS011;16677;52.224;7.484;2023-06-26T05:47:25;12.00;;;10.80;;
29776;SDS011;16677;52.224;7.484;2023-06-26T05:49:52;10.93;;;9.88;;
29776;SDS011;16677;52.224;7.484;2023-06-26T05:52:20;10.15;;;9.23;;
29776;SDS011;16677;52.224;7.484;2023-06-26T05:54:48;14.82;;;9.38;;
29776;SDS011;16677;52.224;7.484;2023-06-26T05:57:16;10.55;;;9.48;;
29776;SDS011;16677;52.224;7.484;2023-06-26T05:59:44;12.38;;;9.80;;
29776;SDS011;16677;52.224;7.484;2023-06-26T06:02:13;11.90;;;9.35;;
29776;SDS011;16677;52.224;7.484;2023-06-26T06:04:41;10.63;;;8.63;;
29776;SDS011;16677;52.224;7.484;2023-06-26T06:07:08;10.15;;;9.20;;
29776;SDS011;16677;52.224;7.484;2023-06-26T06:09:36;9.95;;;9.07;;
29776;SDS011;16677;52.224;7.484;2023-06-26T06:12:07;10.13;;;8.93;;
29776;SDS011;16677;52.224;7.484;2023-06-26T06:14:34;10.07;;;9.00;;
29776;SDS011;16677;52.224;7.484;2023-06-26T06:17:02;11.68;;;8.82;;
29776;SDS011;16677;52.224;7.484;2023-06-26T06:19:30;9.95;;;8.50;;
29776;SDS011;16677;52.224;7.484;2023-06-26T06:21:57;10.38;;;8.20;;
29776;SDS011;16677;52.224;7.484;2023-06-26T06:24:26;11.63;;;9.20;;
29776;SDS011;16677;52.224;7.484;2023-06-26T06:26:53;9.88;;;8.82;;
29776;SDS011;16677;52.224;7.484;2023-06-26T06:29:20;10.10;;;9.02;;
29776;SDS011;16677;52.224;7.484;2023-06-26T06:31:47;11.20;;;8.15;;
29776;SDS011;16677;52.224;7.484;2023-06-26T06:34:15;12.43;;;8.43;;
29776;SDS011;16677;52.224;7.484;2023-06-26T06:36:42;11.10;;;7.43;;
29776;SDS011;16677;52.224;7.484;2023-06-26T06:39:10;9.80;;;7.53;;
29776;SDS011;16677;52.224;7.484;2023-06-26T06:41:39;12.40;;;7.40;;
29776;SDS011;16677;52.224;7.484;2023-06-26T06:44:06;9.55;;;7.03;;
29776;SDS011;16677;52.224;7.484;2023-06-26T06:46:33;12.50;;;7.25;;
29776;SDS011;16677;52.224;7.484;2023-06-26T06:49:01;12.85;;;7.30;;
29776;SDS011;16677;52.224;7.484;2023-06-26T06:51:29;13.43;;;7.72;;
29776;SDS011;16677;52.224;7.484;2023-06-26T06:53:56;9.85;;;7.05;;
29776;SDS011;16677;52.224;7.484;2023-06-26T06:56:24;126.32;;;20.80;;
29776;SDS011;16677;52.224;7.484;2023-06-26T06:58:51;72.18;;;13.75;;
29776;SDS011;16677;52.224;7.484;2023-06-26T07:01:18;48.65;;;12.25;;
29776;SDS011;16677;52.224;7.484;2023-06-26T07:03:46;74.72;;;14.48;;
29776;SDS011;16677;52.224;7.484;2023-06-26T07:06:14;15.73;;;7.15;;
29776;SDS011;16677;52.224;7.484;2023-06-26T07:08:41;14.30;;;7.70;;
29776;SDS011;16677;52.224;7.484;2023-06-26T07:11:09;13.70;;;7.40;;
29776;SDS011;16677;52.224;7.484;2023-06-26T07:13:37;12.48;;;6.72;;
29776;SDS011;16677;52.224;7.484;2023-06-26T07:16:04;12.15;;;7.82;;
29776;SDS011;16677;52.224;7.484;2023-06-26T07:18:32;11.90;;;6.80;;
29776;SDS011;16677;52.224;7.484;2023-06-26T07:20:59;11.05;;;6.25;;
29776;SDS011;16677;52.224;7.484;2023-06-26T07:23:26;23.55;;;7.68;;
29776;SDS011;16677;52.224;7.484;2023-06-26T07:25:53;19.25;;;7.25;;
29776;SDS011;16677;52.224;7.484;2023-06-26T07:28:21;18.00;;;7.90;;
29776;SDS011;16677;52.224;7.484;2023-06-26T07:30:48;80.65;;;14.70;;
29776;SDS011;16677;52.224;7.484;2023-06-26T07:33:15;429.80;;;58.80;;
29776;SDS011;16677;52.224;7.484;2023-06-26T07:35:43;90.82;;;15.18;;
29776;SDS011;16677;52.224;7.484;2023-06-26T07:38:10;48.92;;;9.35;;
29776;SDS011;16677;52.224;7.484;2023-06-26T07:40:38;24.55;;;6.95;;
29776;SDS011;16677;52.224;7.484;2023-06-26T07:43:15;18.00;;;6.93;;
29776;SDS011;16677;52.224;7.484;2023-06-26T07:45:42;34.08;;;7.80;;
29776;SDS011;16677;52.224;7.484;2023-06-26T07:48:10;15.43;;;6.63;;
29776;SDS011;16677;52.224;7.484;2023-06-26T07:50:37;11.27;;;6.30;;
29776;SDS011;16677;52.224;7.484;2023-06-26T07:53:12;21.15;;;7.63;;
29776;SDS011;16677;52.224;7.484;2023-06-26T07:55:41;28.23;;;8.85;;
29776;SDS011;16677;52.224;7.484;2023-06-26T07:58:09;11.93;;;6.65;;
29776;SDS011;16677;52.224;7.484;2023-06-26T08:00:36;11.25;;;5.82;;
29776;SDS011;16677;52.224;7.484;2023-06-26T08:03:05;14.10;;;7.10;;
29776;SDS011;16677;52.224;7.484;2023-06-26T08:05:40;24.65;;;7.70;;
29776;SDS011;16677;52.224;7.484;2023-06-26T08:08:08;22.98;;;14.77;;
29776;SDS011;16677;52.224;7.484;2023-06-26T08:10:37;11.35;;;6.45;;
29776;SDS011;16677;52.224;7.484;2023-06-26T08:13:05;13.95;;;6.55;;
29776;SDS011;16677;52.224;7.484;2023-06-26T08:15:33;13.60;;;7.90;;
29776;SDS011;16677;52.224;7.484;2023-06-26T08:18:00;15.55;;;6.45;;
29776;SDS011;16677;52.224;7.484;2023-06-26T08:20:28;23.42;;;8.45;;
29776;SDS011;16677;52.224;7.484;2023-06-26T08:22:56;16.77;;;7.60;;
29776;SDS011;16677;52.224;7.484;2023-06-26T08:25:23;12.90;;;6.93;;
29776;SDS011;16677;52.224;7.484;2023-06-26T08:27:51;16.73;;;8.60;;
29776;SDS011;16677;52.224;7.484;2023-06-26T08:30:19;15.40;;;7.18;;
29776;SDS011;16677;52.224;7.484;2023-06-26T08:32:46;11.70;;;6.25;;
29776;SDS011;16677;52.224;7.484;2023-06-26T08:35:14;19.00;;;8.50;;
29776;SDS011;16677;52.224;7.484;2023-06-26T08:37:41;24.15;;;10.57;;
29776;SDS011;16677;52.224;7.484;2023-06-26T08:40:09;8.27;;;5.45;;
29776;SDS011;16677;52.224;7.484;2023-06-26T08:42:39;6.80;;;4.63;;
29776;SDS011;16677;52.224;7.484;2023-06-26T08:45:07;8.15;;;5.15;;
29776;SDS011;16677;52.224;7.484;2023-06-26T08:47:35;8.63;;;5.22;;
29776;SDS011;16677;52.224;7.484;2023-06-26T08:50:08;9.65;;;5.22;;
29776;SDS011;16677;52.224;7.484;2023-06-26T08:55:38;13.40;;;6.75;;
29776;SDS011;16677;52.224;7.484;2023-06-26T08:58:08;9.23;;;5.55;;
29776;SDS011;16677;52.224;7.484;2023-06-26T09:00:38;5.95;;;4.03;;
29776;SDS011;16677;52.224;7.484;2023-06-26T09:03:06;8.80;;;4.00;;
29776;SDS011;16677;52.224;7.484;2023-06-26T09:05:36;14.32;;;9.68;;
29776;SDS011;16677;52.224;7.484;2023-06-26T09:08:03;5.22;;;3.33;;
29776;SDS011;16677;52.224;7.484;2023-06-26T09:10:31;6.95;;;2.90;;
29776;SDS011;16677;52.224;7.484;2023-06-26T09:12:59;5.43;;;3.20;;
29776;SDS011;16677;52.224;7.484;2023-06-26T09:15:42;4.28;;;2.97;;
29776;SDS011;16677;52.224;7.484;2023-06-26T09:18:10;4.03;;;2.60;;
29776;SDS011;16677;52.224;7.484;2023-06-26T09:20:38;4.65;;;2.72;;
29776;SDS011;16677;52.224;7.484;2023-06-26T09:23:06;10.93;;;5.53;;
29776;SDS011;16677;52.224;7.484;2023-06-26T09:25:34;4.63;;;3.10;;
29776;SDS011;16677;52.224;7.484;2023-06-26T09:28:08;4.00;;;2.95;;
29776;SDS011;16677;52.224;7.484;2023-06-26T09:30:35;14.73;;;8.27;;
29776;SDS011;16677;52.224;7.484;2023-06-26T09:33:16;4.53;;;3.35;;
29776;SDS011;16677;52.224;7.484;2023-06-26T09:35:47;8.48;;;3.33;;
29776;SDS011;16677;52.224;7.484;2023-06-26T09:38:15;9.35;;;4.35;;
29776;SDS011;16677;52.224;7.484;2023-06-26T09:40:44;10.02;;;4.13;;
29776;SDS011;16677;52.224;7.484;2023-06-26T09:43:12;3.95;;;2.60;;
29776;SDS011;16677;52.224;7.484;2023-06-26T09:45:40;4.45;;;2.55;;
29776;SDS011;16677;52.224;7.484;2023-06-26T09:48:08;30.80;;;16.40;;
29776;SDS011;16677;52.224;7.484;2023-06-26T09:50:38;9.75;;;4.00;;
29776;SDS011;16677;52.224;7.484;2023-06-26T09:53:26;14.05;;;6.35;;
29776;SDS011;16677;52.224;7.484;2023-06-26T09:55:53;4.93;;;3.13;;
29776;SDS011;16677;52.224;7.484;2023-06-26T09:58:21;14.43;;;6.22;;
29776;SDS011;16677;52.224;7.484;2023-06-26T10:00:51;4.50;;;2.70;;
29776;SDS011;16677;52.224;7.484;2023-06-26T10:03:18;6.68;;;4.03;;
29776;SDS011;16677;52.224;7.484;2023-06-26T10:05:46;12.85;;;6.78;;
29776;SDS011;16677;52.224;7.484;2023-06-26T10:08:15;6.70;;;2.97;;
29776;SDS011;16677;52.224;7.484;2023-06-26T10:10:43;4.10;;;2.47;;
29776;SDS011;16677;52.224;7.484;2023-06-26T10:13:21;8.65;;;4.15;;
29776;SDS011;16677;52.224;7.484;2023-06-26T10:15:53;7.78;;;2.75;;
29776;SDS011;16677;52.224;7.484;2023-06-26T10:18:22;4.38;;;2.63;;
29776;SDS011;16677;52.224;7.484;2023-06-26T10:20:55;4.05;;;2.72;;
29776;SDS011;16677;52.224;7.484;2023-06-26T10:23:23;4.55;;;2.92;;
29776;SDS011;16677;52.224;7.484;2023-06-26T10:25:52;6.95;;;3.70;;
29776;SDS011;16677;52.224;7.484;2023-06-26T10:28:30;2.88;;;2.30;;
29776;SDS011;16677;52.224;7.484;2023-06-26T10:31:00;5.43;;;2.80;;
29776;SDS011;16677;52.224;7.484;2023-06-26T10:33:29;9.13;;;2.97;;
29776;SDS011;16677;52.224;7.484;2023-06-26T10:36:16;3.67;;;2.63;;
29776;SDS011;16677;52.224;7.484;2023-06-26T10:38:52;5.65;;;2.88;;
29776;SDS011;16677;52.224;7.484;2023-06-26T10:41:25;14.32;;;4.50;;
29776;SDS011;16677;52.224;7.484;2023-06-26T10:46:29;6.88;;;3.08;;
29776;SDS011;16677;52.224;7.484;2023-06-26T10:49:06;4.03;;;2.50;;
29776;SDS011;16677;52.224;7.484;2023-06-26T10:51:45;8.57;;;3.60;;
29776;SDS011;16677;52.224;7.484;2023-06-26T10:54:16;6.30;;;2.85;;
29776;SDS011;16677;52.224;7.484;2023-06-26T10:56:47;13.60;;;5.45;;
29776;SDS011;16677;52.224;7.484;2023-06-26T10:59:25;8.57;;;3.13;;
29776;SDS011;16677;52.224;7.484;2023-06-26T11:04:43;6.07;;;2.83;;
29776;SDS011;16677;52.224;7.484;2023-06-26T11:07:21;4.40;;;2.92;;
29776;SDS011;16677;52.224;7.484;2023-06-26T11:10:00;11.95;;;4.10;;
29776;SDS011;16677;52.224;7.484;2023-06-26T11:15:12;6.05;;;3.03;;
29776;SDS011;16677;52.224;7.484;2023-06-26T11:17:43;3.30;;;2.78;;
29776;SDS011;16677;52.224;7.484;2023-06-26T11:20:13;3.05;;;2.40;;
29776;SDS011;16677;52.224;7.484;2023-06-26T11:22:44;4.25;;;2.83;;
29776;SDS011;16677;52.224;7.484;2023-06-26T11:25:11;10.82;;;3.88;;
29776;SDS011;16677;52.224;7.484;2023-06-26T11:27:41;6.72;;;3.63;;
29776;SDS011;16677;52.224;7.484;2023-06-26T11:30:10;16.65;;;4.40;;
29776;SDS011;16677;52.224;7.484;2023-06-26T11:32:49;5.97;;;3.40;;
29776;SDS011;16677;52.224;7.484;2023-06-26T11:35:23;11.95;;;3.38;;
29776;SDS011;16677;52.224;7.484;2023-06-26T11:38:01;13.63;;;4.10;;
29776;SDS011;16677;52.224;7.484;2023-06-26T11:40:33;6.72;;;3.10;;
29776;SDS011;16677;52.224;7.484;2023-06-26T11:43:03;16.30;;;4.07;;
29776;SDS011;16677;52.224;7.484;2023-06-26T11:45:31;7.25;;;2.85;;
29776;SDS011;16677;52.224;7.484;2023-06-26T11:48:01;3.53;;;2.78;;
29776;SDS011;16677;52.224;7.484;2023-06-26T11:50:29;5.25;;;3.08;;
29776;SDS011;16677;52.224;7.484;2023-06-26T11:53:00;4.97;;;2.58;;
29776;SDS011;16677;52.224;7.484;2023-06-26T11:55:39;3.80;;;2.85;;
29776;SDS011;16677;52.224;7.484;2023-06-26T11:58:09;4.47;;;2.60;;
29776;SDS011;16677;52.224;7.484;2023-06-26T12:00:41;5.50;;;2.70;;
29776;SDS011;16677;52.224;7.484;2023-06-26T12:03:10;9.45;;;3.28;;
29776;SDS011;16677;52.224;7.484;2023-06-26T12:05:37;9.48;;;3.92;;
29776;SDS011;16677;52.224;7.484;2023-06-26T12:08:06;8.55;;;3.30;;
29776;SDS011;16677;52.224;7.484;2023-06-26T12:10:34;10.32;;;3.05;;
29776;SDS011;16677;52.224;7.484;2023-06-26T12:13:02;9.60;;;3.92;;
29776;SDS011;16677;52.224;7.484;2023-06-26T12:15:30;12.45;;;4.57;;
29776;SDS011;16677;52.224;7.484;2023-06-26T12:17:58;7.20;;;3.33;;
29776;SDS011;16677;52.224;7.484;2023-06-26T12:20:26;8.15;;;3.38;;
29776;SDS011;16677;52.224;7.484;2023-06-26T12:22:57;3.63;;;2.50;;
29776;SDS011;16677;52.224;7.484;2023-06-26T12:25:24;17.35;;;4.40;;
29776;SDS011;16677;52.224;7.484;2023-06-26T12:27:51;15.68;;;3.88;;
29776;SDS011;16677;52.224;7.484;2023-06-26T12:30:18;14.57;;;4.25;;
29776;SDS011;16677;52.224;7.484;2023-06-26T12:32:46;17.88;;;5.35;;
29776;SDS011;16677;52.224;7.484;2023-06-26T12:35:14;4.55;;;2.60;;
29776;SDS011;16677;52.224;7.484;2023-06-26T12:37:42;13.38;;;3.53;;
29776;SDS011;16677;52.224;7.484;2023-06-26T12:40:16;5.43;;;2.28;;
29776;SDS011;16677;52.224;7.484;2023-06-26T12:42:50;3.10;;;2.33;;
29776;SDS011;16677;52.224;7.484;2023-06-26T12:45:17;3.83;;;2.30;;
29776;SDS011;16677;52.224;7.484;2023-06-26T12:47:49;9.50;;;2.88;;
29776;SDS011;16677;52.224;7.484;2023-06-26T12:50:16;5.45;;;2.20;;
29776;SDS011;16677;52.224;7.484;2023-06-26T12:52:44;9.95;;;3.08;;
29776;SDS011;16677;52.224;7.484;2023-06-26T12:55:11;12.98;;;4.15;;
29776;SDS011;16677;52.224;7.484;2023-06-26T12:57:39;6.47;;;2.15;;
29776;SDS011;16677;52.224;7.484;2023-06-26T13:00:06;4.82;;;2.20;;
29776;SDS011;16677;52.224;7.484;2023-06-26T13:02:36;7.65;;;2.97;;
29776;SDS011;16677;52.224;7.484;2023-06-26T13:05:04;15.15;;;5.38;;
29776;SDS011;16677;52.224;7.484;2023-06-26T13:07:31;10.23;;;3.70;;
29776;SDS011;16677;52.224;7.484;2023-06-26T13:09:59;3.72;;;1.80;;
29776;SDS011;16677;52.224;7.484;2023-06-26T13:12:26;15.48;;;4.35;;
29776;SDS011;16677;52.224;7.484;2023-06-26T13:14:53;3.88;;;2.20;;
29776;SDS011;16677;52.224;7.484;2023-06-26T13:17:21;9.63;;;3.30;;
29776;SDS011;16677;52.224;7.484;2023-06-26T13:19:48;9.05;;;3.53;;
29776;SDS011;16677;52.224;7.484;2023-06-26T13:22:15;9.35;;;4.47;;
29776;SDS011;16677;52.224;7.484;2023-06-26T13:24:43;7.57;;;2.90;;
29776;SDS011;16677;52.224;7.484;2023-06-26T13:27:10;3.80;;;1.80;;
29776;SDS011;16677;52.224;7.484;2023-06-26T13:29:38;6.63;;;2.55;;
29776;SDS011;16677;52.224;7.484;2023-06-26T13:32:06;6.13;;;2.13;;
29776;SDS011;16677;52.224;7.484;2023-06-26T13:34:34;8.68;;;3.33;;
29776;SDS011;16677;52.224;7.484;2023-06-26T13:37:02;4.22;;;2.30;;
29776;SDS011;16677;52.224;7.484;2023-06-26T13:39:29;4.00;;;2.05;;
29776;SDS011;16677;52.224;7.484;2023-06-26T13:41:57;6.20;;;2.20;;
29776;SDS011;16677;52.224;7.484;2023-06-26T13:44:25;3.25;;;1.80;;
29776;SDS011;16677;52.224;7.484;2023-06-26T13:47:03;3.10;;;2.03;;
29776;SDS011;16677;52.224;7.484;2023-06-26T13:49:32;3.03;;;1.70;;
29776;SDS011;16677;52.224;7.484;2023-06-26T13:52:00;2.38;;;1.70;;
29776;SDS011;16677;52.224;7.484;2023-06-26T13:54:27;2.90;;;1.90;;
29776;SDS011;16677;52.224;7.484;2023-06-26T13:56:54;3.78;;;2.00;;
29776;SDS011;16677;52.224;7.484;2023-06-26T13:59:24;3.00;;;1.70;;
29776;SDS011;16677;52.224;7.484;2023-06-26T14:01:52;12.40;;;2.65;;
29776;SDS011;16677;52.224;7.484;2023-06-26T14:04:20;4.55;;;1.70;;
29776;SDS011;16677;52.224;7.484;2023-06-26T14:06:47;4.38;;;1.83;;
29776;SDS011;16677;52.224;7.484;2023-06-26T14:09:16;8.20;;;3.55;;
29776;SDS011;16677;52.224;7.484;2023-06-26T14:11:44;11.70;;;4.40;;
29776;SDS011;16677;52.224;7.484;2023-06-26T14:14:11;14.23;;;4.97;;
29776;SDS011;16677;52.224;7.484;2023-06-26T14:16:38;3.85;;;2.10;;
29776;SDS011;16677;52.224;7.484;2023-06-26T14:19:06;10.80;;;4.93;;
29776;SDS011;16677;52.224;7.484;2023-06-26T14:21:37;6.72;;;2.13;;
29776;SDS011;16677;52.224;7.484;2023-06-26T14:24:04;10.82;;;3.72;;
29776;SDS011;16677;52.224;7.484;2023-06-26T14:26:34;6.25;;;3.00;;
29776;SDS011;16677;52.224;7.484;2023-06-26T14:29:03;6.72;;;2.72;;
29776;SDS011;16677;52.224;7.484;2023-06-26T14:31:30;3.63;;;1.70;;
29776;SDS011;16677;52.224;7.484;2023-06-26T14:33:58;5.07;;;2.42;;
29776;SDS011;16677;52.224;7.484;2023-06-26T14:36:25;7.13;;;2.40;;
29776;SDS011;16677;52.224;7.484;2023-06-26T14:38:53;10.20;;;3.22;;
29776;SDS011;16677;52.224;7.484;2023-06-26T14:41:21;9.48;;;4.07;;
29776;SDS011;16677;52.224;7.484;2023-06-26T14:43:48;10.43;;;4.20;;
29776;SDS011;16677;52.224;7.484;2023-06-26T14:46:17;13.73;;;4.38;;
29776;SDS011;16677;52.224;7.484;2023-06-26T14:48:45;5.43;;;2.60;;
29776;SDS011;16677;52.224;7.484;2023-06-26T14:51:13;20.15;;;5.63;;
29776;SDS011;16677;52.224;7.484;2023-06-26T14:53:41;9.13;;;5.05;;
29776;SDS011;16677;52.224;7.484;2023-06-26T14:56:08;8.85;;;2.75;;
29776;SDS011;16677;52.224;7.484;2023-06-26T14:58:36;3.67;;;1.30;;
29776;SDS011;16677;52.224;7.484;2023-06-26T15:01:03;7.10;;;1.58;;
29776;SDS011;16677;52.224;7.484;2023-06-26T15:03:30;14.75;;;3.95;;